Time;durP1;ratioP1;P1;durP2;ratioP2;P2;SDS_P1;SDS_P2;PMS_P1;PMS_P2;Temp;Humidity;BMP_temperature;BMP_pressure;BME280_temperature;BME280_humidity;BME280_pressure;Samples;Min_cycle;Max_cycle;Signal;HPM_P1;HPM_P2
2021/04/06 00:00:59;;;;;;;16.73;2.40;;;;;;;6.43;55.63;101257.47;4902307;28;124002;-67
2021/04/06 00:03:28;;;;;;;12.63;2.60;;;;;;;6.42;55.77;101266.28;4899953;28;123306;-67
2021/04/06 00:06:02;;;;;;;11.80;2.55;;;;;;;6.43;55.61;101265.38;4882108;28;113994;-67
2021/04/06 00:08:31;;;;;;;11.27;2.28;;;;;;;6.43;55.40;101268.00;4900101;28;113854;-67
2021/04/06 00:11:00;;;;;;;12.23;2.38;;;;;;;6.42;55.48;101276.81;4897622;28;123655;-67
2021/04/06 00:13:31;;;;;;;10.88;2.10;;;;;;;6.42;55.66;101276.81;4898298;28;123723;-67
2021/04/06 00:16:00;;;;;;;14.30;2.35;;;;;;;6.42;55.61;101276.81;4900446;28;113847;-67
2021/04/06 00:18:28;;;;;;;14.68;2.70;;;;;;;6.43;55.21;101272.41;4902589;28;114099;-67
2021/04/06 00:20:59;;;;;;;10.60;2.17;;;;;;;6.43;55.76;101262.72;4868816;28;123728;-66
2021/04/06 00:23:30;;;;;;;14.70;2.15;;;;;;;6.44;55.63;101263.59;4898043;28;124685;-67
2021/04/06 00:25:58;;;;;;;15.48;2.17;;;;;;;6.48;55.53;101256.50;4882511;28;114906;-67
2021/04/06 00:28:32;;;;;;;11.98;2.25;;;;;;;6.48;55.51;101264.41;4898357;28;114029;-67
2021/04/06 00:31:00;;;;;;;9.68;2.33;;;;;;;6.49;55.32;101266.16;4898284;28;124489;-67
2021/04/06 00:33:29;;;;;;;14.18;2.35;;;;;;;6.48;55.35;101264.41;4899813;28;123837;-67
2021/04/06 00:35:58;;;;;;;12.80;2.33;;;;;;;6.48;55.20;101267.03;4902578;28;115265;-68
2021/04/06 00:38:40;;;;;;;14.93;2.25;;;;;;;6.48;55.30;101274.91;4898747;28;115493;-66
2021/04/06 00:41:14;;;;;;;13.88;2.05;;;;;;;6.47;55.02;101275.84;4863579;28;123652;-66
2021/04/06 00:43:43;;;;;;;11.00;2.60;;;;;;;6.46;55.03;101282.88;4897365;28;124074;-66
2021/04/06 00:46:15;;;;;;;11.90;2.47;;;;;;;6.44;55.12;101279.38;4899946;28;114760;-66
2021/04/06 00:48:45;;;;;;;13.98;2.25;;;;;;;6.42;54.85;101279.44;4897857;28;115020;-66
2021/04/06 00:51:15;;;;;;;11.07;2.08;;;;;;;6.39;54.91;101271.59;4897675;28;125014;-66
2021/04/06 00:54:02;;;;;;;16.13;2.20;;;;;;;6.37;54.88;101276.03;4898811;28;124018;-66
2021/04/06 00:56:31;;;;;;;13.20;2.30;;;;;;;6.36;54.88;101271.66;4898049;28;115241;-66
2021/04/06 00:59:01;;;;;;;14.65;2.15;;;;;;;6.35;54.99;101275.19;4884601;28;114132;-67
2021/04/06 01:01:29;;;;;;;10.85;1.85;;;;;;;6.34;54.90;101276.06;4898326;28;123110;-66
2021/04/06 01:03:57;;;;;;;13.98;2.47;;;;;;;6.35;54.93;101275.19;4884894;28;124658;-66
2021/04/06 01:06:25;;;;;;;16.13;2.45;;;;;;;6.36;54.84;101282.16;4896519;28;114604;-67
2021/04/06 01:08:53;;;;;;;16.33;3.00;;;;;;;6.36;55.12;101271.66;4885527;28;114146;-66
2021/04/06 01:11:22;;;;;;;13.70;2.70;;;;;;;6.36;54.75;101276.91;4898426;28;124497;-67
2021/04/06 01:13:50;;;;;;;11.02;2.35;;;;;;;6.34;54.84;101283.09;4899420;28;123646;-66
2021/04/06 01:16:17;;;;;;;18.65;2.95;;;;;;;6.34;55.06;101299.75;4901162;28;114014;-67
2021/04/06 01:18:45;;;;;;;18.45;2.83;;;;;;;6.32;55.30;101295.44;4900180;28;114196;-66
2021/04/06 01:21:12;;;;;;;12.60;2.83;;;;;;;6.31;55.21;101299.84;4898614;28;124322;-66
2021/04/06 01:23:39;;;;;;;15.48;2.78;;;;;;;6.32;55.16;101317.34;4899451;28;124621;-66
2021/04/06 01:26:11;;;;;;;13.45;2.60;;;;;;;6.33;55.57;101332.22;4883345;28;114105;-66
2021/04/06 01:28:38;;;;;;;13.30;2.20;;;;;;;6.34;55.47;101326.06;4900051;28;115451;-67
2021/04/06 01:31:07;;;;;;;15.90;2.30;;;;;;;6.31;55.21;101313.00;4882140;28;125130;-66
2021/04/06 01:33:34;;;;;;;13.73;2.72;;;;;;;6.26;55.18;101301.69;4899744;28;123372;-67
2021/04/06 01:36:08;;;;;;;10.80;1.83;;;;;;;6.22;55.04;101305.28;4891640;28;114450;-67
2021/04/06 01:38:41;;;;;;;9.32;1.88;;;;;;;6.15;55.27;101303.66;4879761;28;113740;-67
2021/04/06 01:41:08;;;;;;;9.57;1.98;;;;;;;6.09;55.35;101303.78;4898414;28;124187;-67
2021/04/06 01:43:39;;;;;;;16.45;2.28;;;;;;;6.04;55.62;101296.81;4898170;28;124344;-66
2021/04/06 01:46:24;;;;;;;9.23;2.03;;;;;;;6.03;55.63;101297.72;4896834;28;114492;-67
2021/04/06 01:48:51;;;;;;;14.17;2.27;;;;;;;6.04;55.49;101301.22;4897155;28;114608;-67
2021/04/06 01:51:21;;;;;;;9.57;1.83;;;;;;;6.02;55.71;101282.84;4896404;28;123995;-67
2021/04/06 01:53:48;;;;;;;13.07;2.30;;;;;;;6.02;55.38;101293.34;4898619;28;124479;-67
2021/04/06 01:56:22;;;;;;;13.40;2.17;;;;;;;6.02;55.67;101298.63;4896665;28;114415;-67
2021/04/06 01:58:54;;;;;;;15.40;2.38;;;;;;;6.03;55.77;101295.09;4881300;28;113622;-67
2021/04/06 02:01:24;;;;;;;10.65;2.00;;;;;;;6.06;55.96;101288.06;4896307;28;124006;-67
2021/04/06 02:04:02;;;;;;;12.75;2.65;;;;;;;6.06;56.07;101288.06;4897202;28;123658;-67
2021/04/06 02:06:33;;;;;;;21.02;2.60;;;;;;;6.08;55.94;101270.47;4899350;28;114221;-67
2021/04/06 02:09:00;;;;;;;10.20;2.13;;;;;;;6.09;55.83;101282.75;4901751;28;114051;-67
2021/04/06 02:11:33;;;;;;;14.90;2.58;;;;;;;6.10;55.80;101276.56;4897783;28;124478;-67
2021/04/06 02:14:08;;;;;;;15.60;3.00;;;;;;;6.10;55.93;101273.94;4897399;28;124543;-66
2021/04/06 02:16:47;;;;;;;14.60;2.70;;;;;;;6.08;55.64;101278.38;4897394;28;115538;-67
2021/04/06 02:19:25;;;;;;;17.13;2.70;;;;;;;6.05;55.97;101266.16;4881601;28;114033;-67
2021/04/06 02:21:54;;;;;;;15.65;2.70;;;;;;;6.03;55.88;101278.47;4895544;28;124517;-67
2021/04/06 02:24:40;;;;;;;15.23;2.50;;;;;;;6.00;55.64;101263.59;4881756;28;123177;-67
2021/04/06 02:27:08;;;;;;;11.93;2.40;;;;;;;5.99;55.49;101266.25;4899917;28;114345;-67
2021/04/06 02:29:39;;;;;;;13.75;2.55;;;;;;;5.97;55.87;101263.69;4896224;28;114648;-67
2021/04/06 02:32:08;;;;;;;11.98;2.30;;;;;;;5.97;55.46;101258.41;4898632;28;124698;-67
2021/04/06 02:34:37;;;;;;;8.35;2.17;;;;;;;5.95;55.59;101262.84;4901663;28;124234;-67
2021/04/06 02:37:05;;;;;;;13.27;2.47;;;;;;;5.93;55.33;101267.19;4895216;28;114724;-67
2021/04/06 02:39:37;;;;;;;15.00;2.60;;;;;;;5.92;55.54;101264.63;4900315;28;113573;-67
2021/04/06 02:42:21;;;;;;;17.77;2.72;;;;;;;5.87;55.56;101256.81;4878820;28;124342;-67
2021/04/06 02:44:49;;;;;;;18.13;2.47;;;;;;;5.85;55.26;101259.47;4894055;28;124763;-67
2021/04/06 02:47:17;;;;;;;10.90;2.38;;;;;;;5.83;55.35;101266.50;4896670;28;114509;-67
2021/04/06 02:49:44;;;;;;;15.93;3.05;;;;;;;5.83;55.50;101271.78;4897571;28;113679;-66
2021/04/06 02:52:14;;;;;;;15.13;2.58;;;;;;;5.80;55.26;101276.22;4898635;28;123828;-67
2021/04/06 02:54:41;;;;;;;13.23;2.35;;;;;;;5.78;55.49;101272.75;4894879;28;123209;-67
2021/04/06 02:57:24;;;;;;;12.90;2.35;;;;;;;5.75;55.46;101268.44;4879304;28;115056;-66
2021/04/06 02:59:52;;;;;;;12.88;2.40;;;;;;;5.73;55.49;101270.22;4890491;28;113483;-66
2021/04/06 03:02:19;;;;;;;14.07;2.50;;;;;;;5.72;55.46;101272.88;4897215;28;123469;-67
2021/04/06 03:04:48;;;;;;;13.57;2.83;;;;;;;5.69;55.51;101278.16;4891111;28;123275;-66
2021/04/06 03:07:25;;;;;;;15.63;2.00;;;;;;;5.66;55.53;101274.72;4893769;28;115464;-67
2021/04/06 03:09:53;;;;;;;16.02;2.53;;;;;;;5.65;55.37;101273.00;4876126;28;115400;-67
2021/04/06 03:12:21;;;;;;;15.25;2.67;;;;;;;5.64;55.28;101265.97;4882146;28;123289;-67
2021/04/06 03:14:50;;;;;;;16.73;2.45;;;;;;;5.61;55.35;101279.19;4876287;28;124384;-67
2021/04/06 03:17:17;;;;;;;14.15;2.58;;;;;;;5.59;55.51;101277.47;4897024;28;114983;-67
2021/04/06 03:19:44;;;;;;;12.75;2.47;;;;;;;5.58;55.72;101278.38;4891500;28;114174;-67
2021/04/06 03:22:12;;;;;;;8.98;2.45;;;;;;;5.56;55.53;101283.66;4893709;28;124305;-66
2021/04/06 03:24:39;;;;;;;16.83;2.35;;;;;;;5.54;55.56;101274.03;4893664;28;122766;-66
2021/04/06 03:27:07;;;;;;;10.45;1.85;;;;;;;5.51;55.56;101274.97;4894652;28;114416;-66
2021/04/06 03:29:34;;;;;;;13.13;2.75;;;;;;;5.49;55.45;101282.03;4896429;28;113947;-66
2021/04/06 03:32:01;;;;;;;12.15;2.00;;;;;;;5.47;55.51;101278.56;4883431;28;124018;-66
2021/04/06 03:34:39;;;;;;;17.70;2.40;;;;;;;5.45;55.46;101285.59;4898687;28;124820;-66
2021/04/06 03:37:07;;;;;;;16.35;2.90;;;;;;;5.44;55.41;101283.84;4899056;28;114191;-66
2021/04/06 03:39:36;;;;;;;14.38;2.45;;;;;;;5.42;55.54;101285.63;4921633;23;114457;-70
2021/04/06 03:42:03;;;;;;;13.23;2.85;;;;;;;5.41;55.59;101289.19;4898296;28;123353;-70
2021/04/06 03:44:31;;;;;;;15.75;2.58;;;;;;;5.39;55.43;101286.56;4917492;28;123710;-70
2021/04/06 03:47:03;;;;;;;10.80;2.65;;;;;;;5.40;55.58;101282.16;4911051;28;114489;-70
2021/04/06 03:49:32;;;;;;;12.07;2.40;;;;;;;5.41;55.60;101289.19;4908032;28;113031;-69
2021/04/06 03:52:07;;;;;;;10.60;1.92;;;;;;;5.41;55.36;101283.91;4932933;28;123992;-70
2021/04/06 03:54:46;;;;;;;;;;;;;;;5.40;55.26;101285.66;4935021;28;123821;-70
2021/04/06 03:57:22;;;;;;;6.75;1.60;;;;;;;5.39;55.34;101276.06;4933557;28;115658;-70
2021/04/06 03:59:49;;;;;;;10.48;1.90;;;;;;;5.40;55.45;101276.91;4931540;28;114045;-70
2021/04/06 04:02:16;;;;;;;10.38;1.70;;;;;;;5.39;55.21;101281.31;4933509;28;123812;-70
2021/04/06 04:04:42;;;;;;;4.32;1.40;;;;;;;5.38;55.44;101284.81;4903059;28;123756;-70
2021/04/06 04:07:10;;;;;;;6.22;1.52;;;;;;;5.37;55.44;101288.34;4932348;28;114661;-69
2021/04/06 04:09:37;;;;;;;9.57;1.95;;;;;;;5.34;55.25;101282.28;4906461;28;113033;-69
2021/04/06 04:12:04;;;;;;;6.65;1.80;;;;;;;5.33;55.51;101285.78;4932856;28;124000;-70
2021/04/06 04:14:30;;;;;;;7.13;1.35;;;;;;;5.32;55.52;101286.69;4902088;28;122752;-70
2021/04/06 04:16:57;;;;;;;6.93;1.55;;;;;;;5.32;55.42;101289.31;4919513;28;113768;-70
2021/04/06 04:19:24;;;;;;;5.68;1.67;;;;;;;5.30;55.52;101285.84;4915022;28;112573;-70
2021/04/06 04:21:50;;;;;;;4.57;1.30;;;;;;;5.29;55.74;101284.09;4933152;28;123840;-69
2021/04/06 04:24:17;;;;;;;6.25;1.52;;;;;;;5.28;55.63;101283.25;4921182;28;123313;-70
2021/04/06 04:26:43;;;;;;;10.02;1.50;;;;;;;5.29;55.93;101284.09;4904573;28;114485;-70
2021/04/06 04:29:10;;;;;;;5.78;1.58;;;;;;;5.29;55.80;101286.72;4935257;28;114025;-70
2021/04/06 04:31:36;;;;;;;8.77;1.63;;;;;;;5.26;55.64;101285.88;4934743;28;123763;-69
2021/04/06 04:34:03;;;;;;;6.53;1.70;;;;;;;5.24;55.75;101282.44;4931320;28;124279;-69
2021/04/06 04:36:30;;;;;;;7.85;1.60;;;;;;;5.23;55.60;101280.69;4934773;28;114530;-70
2021/04/06 04:38:57;;;;;;;7.20;1.67;;;;;;;5.22;55.66;101284.22;4915901;28;113868;-70
2021/04/06 04:41:24;;;;;;;9.70;1.77;;;;;;;5.20;55.86;101286.00;4902794;28;123762;-70
2021/04/06 04:43:50;;;;;;;7.20;1.98;;;;;;;5.19;55.62;101281.63;4904293;28;122807;-70
2021/04/06 04:46:17;;;;;;;10.60;2.20;;;;;;;5.19;55.62;101276.38;4934092;28;115090;-70
2021/04/06 04:48:43;;;;;;;11.10;2.05;;;;;;;5.17;55.58;101280.78;4933635;28;114883;-70
2021/04/06 04:51:10;;;;;;;13.70;2.50;;;;;;;5.16;55.75;101284.31;4902294;28;123926;-70
2021/04/06 04:53:36;;;;;;;8.45;2.22;;;;;;;5.15;55.68;101281.72;4920536;28;123694;-69
2021/04/06 04:56:04;;;;;;;8.07;2.17;;;;;;;5.12;55.78;101281.75;4901695;28;113985;-70
2021/04/06 04:58:31;;;;;;;7.60;2.00;;;;;;;5.11;55.53;101286.13;4930969;28;114745;-70
2021/04/06 05:00:57;;;;;;;10.77;1.98;;;;;;;5.10;55.85;101281.75;4930133;28;124469;-69
2021/04/06 05:03:24;;;;;;;12.65;2.35;;;;;;;5.10;55.98;101287.00;4932689;28;124805;-69
2021/04/06 05:05:50;;;;;;;9.35;2.05;;;;;;;5.10;55.94;101278.28;4933291;28;114187;-70
2021/04/06 05:08:17;;;;;;;11.65;2.25;;;;;;;5.08;55.65;101280.91;4892264;28;113008;-70
2021/04/06 05:10:43;;;;;;;10.40;2.38;;;;;;;5.07;55.80;101279.19;4931687;28;123879;-70
2021/04/06 05:13:10;;;;;;;14.05;2.00;;;;;;;5.04;56.10;101279.25;4935336;28;124169;-70
2021/04/06 05:15:37;;;;;;;7.82;1.92;;;;;;;5.05;55.92;101270.50;4916111;28;113151;-69
2021/04/06 05:18:03;;;;;;;8.25;1.95;;;;;;;5.05;56.18;101275.75;4932437;28;114181;-69
2021/04/06 05:20:30;;;;;;;12.40;2.15;;;;;;;5.06;56.04;101277.47;4934319;28;124704;-70
2021/04/06 05:22:56;;;;;;;8.93;2.25;;;;;;;5.07;55.92;101279.19;4931363;28;125602;-69
2021/04/06 05:25:23;;;;;;;15.80;2.05;;;;;;;5.07;56.08;101289.69;4890993;28;113521;-69
2021/04/06 05:27:49;;;;;;;12.07;2.05;;;;;;;5.05;55.92;101286.25;4933426;28;114029;-70
2021/04/06 05:30:16;;;;;;;9.85;2.20;;;;;;;5.04;56.16;101281.88;4930473;28;123745;-70
2021/04/06 05:32:43;;;;;;;11.77;2.60;;;;;;;5.05;56.10;101291.50;4916172;28;124107;-70
2021/04/06 05:35:10;;;;;;;9.48;2.65;;;;;;;5.03;56.10;101293.28;4930681;28;115271;-70
2021/04/06 05:37:37;;;;;;;17.20;2.60;;;;;;;5.04;56.15;101284.50;4933349;28;115076;-70
2021/04/06 05:40:05;;;;;;;10.93;2.20;;;;;;;5.03;56.21;101288.03;4928893;28;124101;-69
2021/04/06 05:42:32;;;;;;;9.23;2.42;;;;;;;5.05;56.47;101288.88;4919413;28;124396;-70
2021/04/06 05:44:59;;;;;;;11.35;2.45;;;;;;;5.06;56.31;101287.94;4932735;28;114513;-70
2021/04/06 05:47:32;;;;;;;10.48;2.20;;;;;;;5.07;56.26;101294.97;4935276;28;114508;-69
2021/04/06 05:50:01;;;;;;;14.15;2.30;;;;;;;5.09;56.29;101293.16;4932092;28;123686;-70
2021/04/06 05:52:30;;;;;;;10.07;1.75;;;;;;;5.09;56.17;101298.41;4919634;28;123173;-70
2021/04/06 05:54:58;;;;;;;13.38;2.08;;;;;;;5.11;56.12;101291.38;4930001;28;114082;-69
2021/04/06 05:57:25;;;;;;;11.48;2.17;;;;;;;5.14;56.28;101291.34;4937235;28;114542;-70
2021/04/06 05:59:52;;;;;;;12.80;2.05;;;;;;;5.17;55.97;101293.91;4932986;28;124420;-70
2021/04/06 06:02:18;;;;;;;12.77;2.25;;;;;;;5.20;56.24;101293.88;4913981;28;123646;-70
2021/04/06 06:04:46;;;;;;;5.90;2.08;;;;;;;5.22;56.18;101294.72;4919785;28;115408;-70
2021/04/06 06:07:13;;;;;;;7.72;1.85;;;;;;;5.28;56.20;101290.25;4905647;28;113760;-69
2021/04/06 06:09:40;;;;;;;8.07;1.65;;;;;;;5.34;56.47;101292.78;4920323;28;123478;-69
2021/04/06 06:12:12;;;;;;;7.15;1.70;;;;;;;5.41;56.33;101297.06;4933605;28;124167;-69
2021/04/06 06:14:41;;;;;;;10.25;1.92;;;;;;;5.47;56.28;101295.16;4933042;28;113419;-70
2021/04/06 06:17:27;;;;;;;7.28;2.00;;;;;;;5.56;56.12;101303.81;4931113;28;113808;-70
2021/04/06 06:19:56;;;;;;;6.05;1.50;;;;;;;5.64;56.61;101297.50;4919412;28;122932;-69
2021/04/06 06:22:31;;;;;;;10.20;1.98;;;;;;;5.73;56.43;101295.63;4933276;28;124536;-69
2021/04/06 06:25:10;;;;;;;8.80;2.22;;;;;;;5.81;56.39;101299.00;4929915;28;115493;-69
2021/04/06 06:27:42;;;;;;;8.82;2.10;;;;;;;5.88;56.19;101300.63;4917303;28;114148;-70
2021/04/06 06:30:30;;;;;;;8.18;2.10;;;;;;;5.96;56.20;101306.63;4899371;28;123882;-69
2021/04/06 06:33:28;;;;;;;5.68;1.90;;;;;;;6.02;55.90;101309.13;4896382;28;122879;-71
2021/04/06 06:36:02;;;;;;;9.25;1.98;;;;;;;6.11;56.07;101313.34;4912724;28;113554;-71
2021/04/06 06:38:29;;;;;;;6.85;1.95;;;;;;;6.22;56.20;101315.78;4932969;28;114431;-71
2021/04/06 06:41:20;;;;;;;3.58;1.50;;;;;;;6.33;56.29;101308.56;4931431;28;124116;-71
2021/04/06 06:43:52;;;;;;;4.53;1.35;;;;;;;6.45;56.01;101306.56;4930307;28;123901;-71
2021/04/06 06:46:20;;;;;;;2.67;1.10;;;;;;;6.49;55.48;101313.50;4913758;28;114441;-71
2021/04/06 06:48:55;;;;;;;6.30;1.50;;;;;;;6.53;55.22;101302.88;4933896;28;114370;-71
2021/04/06 06:51:28;;;;;;;5.05;1.10;;;;;;;6.59;55.31;101299.25;4900470;28;124359;-71
2021/04/06 06:53:56;;;;;;;6.88;1.30;;;;;;;6.64;55.11;101297.38;4932730;28;123902;-71
2021/04/06 06:57:05;;;;;;;3.92;1.17;;;;;;;6.65;54.72;101292.97;4932075;28;115065;-71
2021/04/06 06:59:36;;;;;;;4.15;1.27;;;;;;;6.67;54.59;101297.34;4893364;28;115591;-70
2021/04/06 07:02:39;;;;;;;5.43;1.50;;;;;;;6.66;54.44;101294.72;4901518;28;123034;-70
2021/04/06 07:05:16;;;;;;;5.88;1.52;;;;;;;6.65;54.45;101304.41;4859731;28;123220;-71
2021/04/06 07:07:56;;;;;;;2.88;1.05;;;;;;;6.65;54.38;101293.88;4907721;28;113973;-71
2021/04/06 07:10:25;;;;;;;3.85;1.10;;;;;;;6.66;54.16;101289.47;4916066;28;113936;-71
2021/04/06 07:12:57;;;;;;;4.32;1.10;;;;;;;6.68;54.25;101288.53;4918132;28;124113;-71
2021/04/06 07:15:25;;;;;;;4.53;1.30;;;;;;;6.70;54.25;101289.34;4930323;28;124158;-71
2021/04/06 07:17:59;;;;;;;4.35;1.08;;;;;;;6.75;54.43;101290.13;4919477;28;115659;-71
2021/04/06 07:20:27;;;;;;;4.00;0.90;;;;;;;6.82;54.47;101302.25;4933961;28;115119;-70
2021/04/06 07:22:58;;;;;;;6.05;1.20;;;;;;;6.89;54.56;101297.72;4938025;28;124502;-70
2021/04/06 07:25:26;;;;;;;4.40;1.27;;;;;;;6.99;54.42;101295.75;4930259;28;124551;-70
2021/04/06 07:27:53;;;;;;;6.22;1.40;;;;;;;7.07;54.31;101291.16;4915264;28;113644;-70
2021/04/06 07:30:20;;;;;;;4.57;1.25;;;;;;;7.17;54.41;101284.78;4903822;28;113104;-70
2021/04/06 07:32:46;;;;;;;8.85;1.52;;;;;;;7.25;54.41;101289.84;4903584;28;124691;-71
2021/04/06 07:35:13;;;;;;;5.97;1.63;;;;;;;7.30;54.10;101287.13;4932883;28;124274;-70
2021/04/06 07:37:43;;;;;;;9.23;1.50;;;;;;;7.32;53.91;101274.78;4936069;28;114328;-71
2021/04/06 07:40:14;;;;;;;5.20;1.45;;;;;;;7.35;53.65;101280.84;4913382;28;113903;-71
2021/04/06 07:42:43;;;;;;;6.38;1.52;;;;;;;7.35;53.70;101280.84;4920445;28;123161;-71
2021/04/06 07:45:30;;;;;;;6.28;1.88;;;;;;;7.36;53.61;101286.97;4909588;28;122694;-70
2021/04/06 07:47:57;;;;;;;8.43;1.30;;;;;;;7.40;53.98;101280.72;4933441;28;114241;-70
2021/04/06 07:50:38;;;;;;;8.13;1.30;;;;;;;7.48;53.73;101275.25;4922014;28;114836;-71
2021/04/06 07:53:27;;;;;;;5.53;1.30;;;;;;;7.57;53.99;101282.91;4940330;28;124418;-71
2021/04/06 07:55:55;;;;;;;6.82;1.48;;;;;;;7.71;54.16;101288.72;4916870;28;124067;-71
2021/04/06 07:58:51;;;;;;;7.65;1.58;;;;;;;7.85;54.24;101290.97;4936219;28;114402;-71
2021/04/06 08:01:29;;;;;;;6.90;1.70;;;;;;;7.95;53.76;101294.25;4937687;28;113737;-71
2021/04/06 08:03:57;;;;;;;9.43;1.67;;;;;;;7.98;53.42;101292.38;4935261;28;123992;-71
2021/04/06 08:06:26;;;;;;;10.93;1.63;;;;;;;7.97;52.79;101295.09;4942598;28;124587;-71
2021/04/06 08:08:53;;;;;;;12.20;1.90;;;;;;;7.91;52.64;101290.84;4922401;28;115336;-71
2021/04/06 08:11:40;;;;;;;4.07;1.42;;;;;;;7.84;52.48;101297.19;4934649;28;114931;-71
2021/04/06 08:14:07;;;;;;;7.75;1.60;;;;;;;7.77;52.69;101300.88;4938330;28;123891;-71
2021/04/06 08:16:33;;;;;;;7.03;1.33;;;;;;;7.67;52.35;101296.75;4925164;28;123016;-71
2021/04/06 08:19:05;;;;;;;6.38;1.75;;;;;;;7.51;52.67;101302.38;4939871;28;114677;-71
2021/04/06 08:21:32;;;;;;;8.30;1.85;;;;;;;7.40;52.82;101299.16;4920034;28;114599;-71
2021/04/06 08:23:59;;;;;;;6.93;2.00;;;;;;;7.31;52.71;101304.66;4934264;28;123977;-72
2021/04/06 08:26:30;;;;;;;11.02;2.20;;;;;;;7.25;53.15;101296.91;4900226;28;123100;-73
2021/04/06 08:29:22;;;;;;;8.30;2.20;;;;;;;7.21;53.63;101297.00;4921812;28;113760;-73
2021/04/06 08:32:11;;;;;;;6.70;1.48;;;;;;;7.22;53.80;101296.06;4924119;28;114279;-73
2021/04/06 08:34:54;;;;;;;7.75;1.77;;;;;;;7.27;54.29;101300.34;4922435;28;122535;-72
2021/04/06 08:37:34;;;;;;;4.68;1.60;;;;;;;7.36;54.53;101303.63;4914571;28;123032;-73
2021/04/06 08:40:05;;;;;;;5.28;1.40;;;;;;;7.45;54.52;101302.56;4929288;28;114488;-73
2021/04/06 08:42:33;;;;;;;5.93;1.58;;;;;;;7.53;54.64;101290.03;4920418;28;114371;-74
2021/04/06 08:45:01;;;;;;;5.88;1.60;;;;;;;7.64;54.61;101287.13;4929595;28;124798;-73
2021/04/06 08:47:43;;;;;;;5.18;1.52;;;;;;;7.80;54.89;101292.91;4930114;28;123528;-72
2021/04/06 08:50:31;;;;;;;6.25;1.70;;;;;;;7.91;54.39;101296.13;4931361;28;114757;-72
2021/04/06 08:52:59;;;;;;;6.97;1.65;;;;;;;8.02;54.06;101287.03;4915510;28;114280;-72
2021/04/06 08:55:26;;;;;;;5.75;1.58;;;;;;;8.13;53.74;101290.25;4926649;28;124204;-74
2021/04/06 08:57:59;;;;;;;4.55;1.75;;;;;;;8.22;53.95;101284.72;4920901;28;122720;-72
2021/04/06 09:00:27;;;;;;;5.82;1.42;;;;;;;8.28;53.62;101284.53;4913949;28;114898;-71
2021/04/06 09:03:06;;;;;;;4.45;1.83;;;;;;;8.29;53.17;101286.28;4918613;28;114050;-71
2021/04/06 09:05:33;;;;;;;5.15;1.73;;;;;;;8.30;53.29;101282.72;4938678;28;124344;-72
2021/04/06 09:08:00;;;;;;;7.53;1.80;;;;;;;8.30;52.83;101281.84;4936944;28;124719;-72
2021/04/06 09:10:36;;;;;;;5.05;1.40;;;;;;;8.29;52.43;101281.00;4923559;28;114088;-72
2021/04/06 09:13:03;;;;;;;6.95;1.60;;;;;;;8.28;52.72;101276.59;4929193;28;114094;-72
2021/04/06 09:15:30;;;;;;;7.20;1.90;;;;;;;8.29;52.40;101275.72;4891412;28;124297;-72
2021/04/06 09:18:01;;;;;;;8.43;1.63;;;;;;;8.30;52.59;101277.44;4936846;28;124786;-72
2021/04/06 09:20:28;;;;;;;7.85;1.75;;;;;;;8.33;52.79;101269.44;4905520;28;113765;-72
2021/04/06 09:22:54;;;;;;;7.03;1.70;;;;;;;8.44;53.02;101268.28;4937566;28;114398;-72
2021/04/06 09:25:28;;;;;;;7.95;1.75;;;;;;;8.55;52.80;101258.25;4907848;28;123556;-72
2021/04/06 09:27:58;;;;;;;5.95;1.80;;;;;;;8.68;52.89;101257.00;4921790;28;96758;-72
2021/04/06 09:30:44;;;;;;;10.80;1.95;;;;;;;8.76;52.73;101265.56;4941714;28;114744;-72
2021/04/06 09:33:15;;;;;;;6.43;1.77;;;;;;;8.88;52.59;101252.88;4899537;28;113686;-72
2021/04/06 09:35:51;;;;;;;8.40;1.90;;;;;;;8.99;52.75;101256.03;4923422;28;123987;-72
2021/04/06 09:38:20;;;;;;;9.73;2.15;;;;;;;9.13;52.18;101263.53;4930979;28;124212;-72
2021/04/06 09:40:47;;;;;;;10.35;1.70;;;;;;;9.24;52.45;101257.91;4920916;28;113570;-71
2021/04/06 09:43:14;;;;;;;7.05;1.77;;;;;;;9.34;52.09;101251.38;4933556;28;114400;-71
2021/04/06 09:45:41;;;;;;;8.30;1.70;;;;;;;9.46;51.92;101245.69;4915822;28;124121;-71
2021/04/06 09:48:13;;;;;;;7.93;1.90;;;;;;;9.59;51.90;101239.97;4910331;28;124103;-71
2021/04/06 09:50:54;;;;;;;5.85;1.60;;;;;;;9.69;51.82;101236.09;4899643;28;115173;-71
2021/04/06 09:53:20;;;;;;;12.43;2.25;;;;;;;9.83;51.36;101233.84;4923502;28;114698;-71
2021/04/06 09:55:47;;;;;;;8.45;1.77;;;;;;;9.94;50.98;101226.38;4930786;28;123904;-71
2021/04/06 09:58:14;;;;;;;7.55;1.67;;;;;;;9.99;50.66;101225.34;4906285;28;123888;-71
2021/04/06 10:00:44;;;;;;;6.60;1.98;;;;;;;9.99;50.04;101234.13;4939418;28;114672;-71
2021/04/06 10:03:17;;;;;;;6.50;1.58;;;;;;;9.98;50.06;101236.84;4917667;28;114273;-71
2021/04/06 10:05:46;;;;;;;7.25;1.80;;;;;;;9.96;50.03;101236.03;4913025;28;124660;-71
2021/04/06 10:08:24;;;;;;;5.57;1.70;;;;;;;9.92;49.86;101222.91;4889256;28;123305;-70
2021/04/06 10:10:51;;;;;;;4.43;1.50;;;;;;;9.92;49.81;101214.97;4912008;28;114599;-71
2021/04/06 10:13:18;;;;;;;6.72;1.60;;;;;;;9.93;50.00;101224.63;4895040;28;115023;-72
2021/04/06 10:15:44;;;;;;;8.88;1.83;;;;;;;9.97;50.30;101224.53;4911053;28;123652;-71
2021/04/06 10:18:16;;;;;;;6.00;2.00;;;;;;;9.99;50.44;101222.69;4891360;28;123258;-71
2021/04/06 10:20:50;;;;;;;7.72;1.65;;;;;;;10.03;50.47;101213.72;4895983;28;114233;-71
2021/04/06 10:23:32;;;;;;;6.82;1.23;;;;;;;10.05;50.15;101217.19;4916720;28;113737;-71
2021/04/06 10:25:58;;;;;;;8.40;1.48;;;;;;;10.09;50.21;101200.25;4934937;28;124244;-71
2021/04/06 10:28:28;;;;;;;4.00;1.40;;;;;;;10.13;50.30;101188.63;4915378;28;123571;-71
2021/04/06 10:31:03;;;;;;;4.25;1.20;;;;;;;10.18;50.03;101186.69;4942002;28;114535;-71
2021/04/06 10:33:34;;;;;;;;;;;;;;;10.24;50.88;101189.09;4922697;28;113442;-71
2021/04/06 10:36:16;;;;;;;4.93;1.33;;;;;;;10.36;50.28;101189.56;4911894;28;123855;-71
2021/04/06 10:38:43;;;;;;;6.88;1.50;;;;;;;10.45;49.94;101175.97;4929250;28;124100;-71
2021/04/06 10:41:16;;;;;;;5.68;1.50;;;;;;;10.47;49.33;101203.25;4937089;28;115503;-71
2021/04/06 10:43:48;;;;;;;4.30;1.42;;;;;;;10.39;48.86;101202.69;4909632;28;113650;-72
2021/04/06 10:46:22;;;;;;;5.55;1.30;;;;;;;10.21;48.55;101207.75;4929684;28;124386;-73
2021/04/06 10:48:51;;;;;;;5.78;1.65;;;;;;;10.01;48.66;101189.97;4899380;28;124283;-73
2021/04/06 10:51:25;;;;;;;7.70;1.80;;;;;;;9.84;48.71;101193.22;4920505;28;112858;-72
2021/04/06 10:53:57;;;;;;;5.28;1.40;;;;;;;9.75;49.09;101193.56;4902154;28;113368;-72
2021/04/06 10:56:30;;;;;;;4.22;1.30;;;;;;;9.72;49.35;101193.69;4916126;28;124437;-73
2021/04/06 10:59:06;;;;;;;3.90;1.30;;;;;;;9.66;49.11;101204.47;4920809;28;123875;-72
2021/04/06 11:01:48;;;;;;;3.53;1.15;;;;;;;9.51;48.75;101206.75;4910920;28;113901;-72
2021/04/06 11:04:20;;;;;;;5.43;1.10;;;;;;;9.31;48.84;101235.63;4926980;28;113332;-71
2021/04/06 11:06:52;;;;;;;4.15;1.20;;;;;;;8.99;48.60;101240.19;4930309;28;124210;-73
2021/04/06 11:09:22;;;;;;;4.03;1.27;;;;;;;8.56;48.74;101221.25;4928151;28;124217;-72
2021/04/06 11:11:52;;;;;;;4.68;1.08;;;;;;;8.23;48.83;101212.56;4902033;28;113281;-73
2021/04/06 11:14:22;;;;;;;5.03;2.08;;;;;;;7.97;49.45;101210.69;4894589;28;113274;-74
2021/04/06 11:16:50;;;;;;;3.78;1.30;;;;;;;7.82;49.95;101211.97;4927672;28;126012;-73
2021/04/06 11:19:26;;;;;;;5.00;1.42;;;;;;;7.66;50.68;101205.38;4929477;28;123685;-73
2021/04/06 11:21:56;;;;;;;5.93;1.30;;;;;;;7.56;51.26;101205.63;4929451;28;119480;-72
2021/04/06 11:24:24;;;;;;;4.60;1.30;;;;;;;7.52;51.81;101187.31;4919316;28;118466;-72
2021/04/06 11:26:52;;;;;;;4.90;1.50;;;;;;;7.54;52.66;101191.63;4929151;28;123992;-72
2021/04/06 11:29:21;;;;;;;3.28;1.30;;;;;;;7.62;52.86;101182.66;4892529;28;124112;-72
2021/04/06 11:31:51;;;;;;;3.97;1.45;;;;;;;7.73;53.42;101180.59;4926153;28;120551;-71
2021/04/06 11:34:18;;;;;;;6.93;1.55;;;;;;;7.89;53.71;101187.16;4910233;28;119243;-72
2021/04/06 11:36:46;;;;;;;4.43;1.30;;;;;;;8.02;53.59;101182.38;4930951;28;125021;-72
2021/04/06 11:39:16;;;;;;;3.35;1.40;;;;;;;8.17;53.54;101174.03;4910640;28;123923;-73